createdAt,value
2018-04-12T00:02:33.476Z,94
2018-04-12T00:07:32.676Z,94
2018-04-12T00:12:32.791Z,94
2018-04-12T00:17:33.147Z,94
2018-04-12T00:22:33.335Z,94
2018-04-12T00:27:32.751Z,94
2018-04-12T00:32:33.011Z,94
2018-04-12T00:37:33.285Z,94
2018-04-12T00:42:32.555Z,94
2018-04-12T00:47:32.934Z,94
2018-04-12T00:52:33.207Z,94
2018-04-12T00:57:33.383Z,94
2018-04-12T01:02:32.688Z,94
2018-04-12T01:07:33.119Z,94
2018-04-12T01:12:33.250Z,94
2018-04-12T01:17:33.460Z,94
2018-04-12T01:22:32.641Z,94
2018-04-12T01:27:33.015Z,94
2018-04-12T01:32:33.302Z,95
2018-04-12T01:37:33.459Z,95
2018-04-12T01:42:32.631Z,95
2018-04-12T01:47:32.899Z,95
2018-04-12T01:52:33.264Z,95
2018-04-12T01:57:33.472Z,95
2018-04-12T02:02:32.656Z,95
2018-04-12T02:07:32.837Z,95
2018-04-12T02:12:32.980Z,95
2018-04-12T02:17:33.249Z,95
2018-04-12T02:22:33.455Z,95
2018-04-12T02:27:33.669Z,95
2018-04-12T02:32:32.869Z,95
2018-04-12T02:37:33.072Z,95
2018-04-12T02:42:33.333Z,95
2018-04-12T02:47:32.972Z,95
2018-04-12T02:52:33.160Z,95
2018-04-12T02:57:33.421Z,95
2018-04-12T03:02:32.949Z,95
2018-04-12T03:07:33.106Z,95
2018-04-12T03:12:33.327Z,95
2018-04-12T03:17:33.724Z,95
2018-04-12T03:22:32.832Z,95
2018-04-12T03:27:32.959Z,95
2018-04-12T03:32:33.123Z,96
2018-04-12T03:37:33.350Z,96
2018-04-12T03:42:33.655Z,96
2018-04-12T03:47:32.874Z,96
2018-04-12T03:52:33.207Z,96
2018-04-12T03:57:33.330Z,96
2018-04-12T04:02:33.629Z,96
2018-04-12T04:07:32.788Z,96
2018-04-12T04:12:33.098Z,96
2018-04-12T04:17:33.258Z,96
2018-04-12T04:22:33.534Z,96
2018-04-12T04:27:32.945Z,96
2018-04-12T04:32:33.858Z,96
2018-04-12T04:37:33.165Z,96
2018-04-12T04:42:33.412Z,96
2018-04-12T04:47:33.629Z,96
2018-04-12T04:52:32.794Z,96
2018-04-12T04:57:33.113Z,96
2018-04-12T05:02:33.289Z,96
2018-04-12T05:07:33.495Z,96
2018-04-12T05:12:33.777Z,96
2018-04-12T05:17:33.085Z,96
2018-04-12T05:22:33.284Z,97
2018-04-12T05:27:33.596Z,97
2018-04-12T05:32:33.000Z,97
2018-04-12T05:37:33.163Z,97
2018-04-12T05:42:33.476Z,97
2018-04-12T05:47:33.742Z,97
2018-04-12T05:52:32.993Z,97
2018-04-12T05:57:33.378Z,97
2018-04-12T06:02:33.234Z,97
2018-04-12T06:07:33.763Z,97
2018-04-12T06:12:33.050Z,97
2018-04-12T06:17:33.180Z,97
2018-04-12T06:22:33.480Z,97
2018-04-12T06:27:33.779Z,97
2018-04-12T06:32:33.098Z,97
2018-04-12T06:37:33.243Z,97
2018-04-12T06:42:33.414Z,97
2018-04-12T06:47:33.634Z,97
2018-04-12T06:52:33.927Z,97
2018-04-12T06:57:33.163Z,97
2018-04-12T07:02:33.631Z,97
2018-04-12T07:07:33.873Z,97
2018-04-12T07:12:33.053Z,97
2018-04-12T07:17:33.225Z,97
2018-04-12T07:22:33.454Z,96
2018-04-12T07:27:33.652Z,96
2018-04-12T07:32:33.807Z,95
2018-04-12T07:37:33.020Z,95
2018-04-12T07:42:33.333Z,94
2018-04-12T07:47:33.633Z,94
2018-04-12T07:52:33.881Z,90
2018-04-12T07:57:33.138Z,90
2018-04-12T08:02:33.416Z,88
2018-04-12T08:07:33.633Z,88
2018-04-12T08:12:33.978Z,86
2018-04-12T08:17:33.216Z,86
2018-04-12T08:22:33.467Z,84
2018-04-12T08:27:33.733Z,84
2018-04-12T08:32:33.989Z,82
2018-04-12T08:37:33.146Z,82
2018-04-12T08:42:33.526Z,82
2018-04-12T08:47:33.802Z,82
2018-04-12T08:52:34.059Z,81
2018-04-12T08:57:33.389Z,81
2018-04-12T09:02:33.622Z,80
2018-04-12T09:07:33.825Z,80
2018-04-12T09:12:33.150Z,80
2018-04-12T09:17:33.253Z,80
2018-04-12T09:22:33.537Z,80
2018-04-12T09:27:33.872Z,80
2018-04-12T09:32:33.220Z,78
2018-04-12T09:37:33.407Z,78
2018-04-12T09:42:33.599Z,79
2018-04-12T09:47:33.789Z,79
2018-04-12T09:52:34.092Z,78
2018-04-12T09:57:33.404Z,78
2018-04-12T10:02:33.630Z,76
2018-04-12T10:07:33.769Z,76
2018-04-12T10:12:34.184Z,76
2018-04-12T10:17:33.679Z,76
2018-04-12T10:22:33.800Z,78
2018-04-12T10:27:49.032Z,78
2018-04-12T10:32:33.227Z,78
2018-04-12T10:37:33.404Z,78
2018-04-12T10:42:33.554Z,75
2018-04-12T10:47:33.748Z,75
2018-04-12T10:52:34.056Z,73
2018-04-12T10:57:33.242Z,73
2018-04-12T11:02:33.480Z,73
2018-04-12T11:07:33.598Z,73
2018-04-12T11:12:33.912Z,73
2018-04-12T11:17:34.100Z,73
2018-04-12T11:22:33.234Z,73
2018-04-12T11:27:33.328Z,73
2018-04-12T11:32:33.747Z,74
2018-04-12T11:37:34.009Z,74
2018-04-12T11:42:33.262Z,74
2018-04-12T11:47:33.393Z,74
2018-04-12T11:52:33.611Z,73
2018-04-12T11:57:33.793Z,73
2018-04-12T12:02:34.239Z,70
2018-04-12T12:07:33.437Z,70
2018-04-12T12:12:33.661Z,68
2018-04-12T12:17:34.045Z,68
2018-04-12T12:22:34.290Z,68
2018-04-12T12:27:33.446Z,68
2018-04-12T12:32:33.862Z,67
2018-04-12T12:37:34.014Z,67
2018-04-12T12:42:33.451Z,67
2018-04-12T12:47:33.670Z,67
2018-04-12T12:52:33.811Z,68
2018-04-12T12:57:34.163Z,68
2018-04-12T13:02:33.465Z,69
2018-04-12T13:07:33.744Z,69
2018-04-12T13:12:33.921Z,70
2018-04-12T13:17:34.187Z,70
2018-04-12T13:22:33.462Z,71
2018-04-12T13:27:33.585Z,71
2018-04-12T13:32:33.793Z,70
2018-04-12T13:37:33.504Z,70
2018-04-12T13:42:33.773Z,67
2018-04-12T13:47:34.081Z,67
2018-04-12T13:52:34.375Z,68
2018-04-12T13:57:33.565Z,68
2018-04-12T14:02:34.108Z,67
2018-04-12T14:07:34.298Z,67
2018-04-12T14:12:33.594Z,65
2018-04-12T14:17:33.858Z,65
2018-04-12T14:22:34.239Z,65
2018-04-12T14:27:33.706Z,65
2018-04-12T14:32:33.967Z,65
2018-04-12T14:37:34.168Z,65
2018-04-12T14:42:33.498Z,66
2018-04-12T14:47:33.795Z,66
2018-04-12T14:52:34.068Z,66
2018-04-12T14:57:33.429Z,66
2018-04-12T15:02:33.671Z,67
2018-04-12T15:07:33.800Z,67
2018-04-12T15:12:34.130Z,66
2018-04-12T15:17:33.541Z,66
2018-04-12T15:22:33.857Z,66
2018-04-12T15:27:33.989Z,66
2018-04-12T15:32:34.326Z,67
2018-04-12T15:37:34.555Z,67
2018-04-12T15:42:33.777Z,68
2018-04-12T15:47:34.035Z,68
2018-04-12T15:52:34.214Z,68
2018-04-12T15:57:34.468Z,68
2018-04-12T16:02:33.796Z,68
2018-04-12T16:07:33.876Z,68
2018-04-12T16:12:34.114Z,69
2018-04-12T16:17:34.325Z,69
2018-04-12T16:22:34.482Z,70
2018-04-12T16:27:33.708Z,70
2018-04-12T16:32:34.429Z,70
2018-04-12T16:37:33.591Z,70
2018-04-12T16:42:33.751Z,71
2018-04-12T16:47:34.009Z,71
2018-04-12T16:52:34.215Z,72
2018-04-12T16:57:34.435Z,72
2018-04-12T17:02:34.056Z,72
2018-04-12T17:07:34.351Z,72
2018-04-12T17:12:34.508Z,73
2018-04-12T17:17:33.730Z,73
2018-04-12T17:22:33.975Z,73
2018-04-12T17:27:34.154Z,73
2018-04-12T17:32:34.012Z,73
2018-04-12T17:37:34.336Z,73
2018-04-12T17:42:34.615Z,75
2018-04-12T17:47:33.841Z,75
2018-04-12T17:52:34.042Z,78
2018-04-12T17:57:34.530Z,78
2018-04-12T18:02:33.832Z,78
2018-04-12T18:07:34.325Z,78
2018-04-12T18:12:34.655Z,79
2018-04-12T18:17:33.917Z,79
2018-04-12T18:22:33.691Z,80
2018-04-12T18:27:33.790Z,80
2018-04-12T18:32:33.715Z,81
2018-04-12T18:37:34.648Z,81
2018-04-12T18:42:34.499Z,82
2018-04-12T18:47:34.316Z,82
2018-04-12T18:52:34.472Z,84
2018-04-12T18:57:34.103Z,84
2018-04-12T19:02:34.345Z,85
2018-04-12T19:07:34.623Z,85
2018-04-12T19:12:34.070Z,86
2018-04-12T19:17:34.718Z,86
2018-04-12T19:22:34.018Z,87
2018-04-12T19:27:34.443Z,87
2018-04-12T19:32:34.706Z,87
2018-04-12T19:37:34.222Z,87
2018-04-12T19:42:34.417Z,88
2018-04-12T19:47:33.973Z,88
2018-04-12T19:52:34.746Z,88
2018-04-12T19:57:33.951Z,88
2018-04-12T20:02:34.171Z,88
2018-04-12T20:07:34.458Z,88
2018-04-12T20:12:34.060Z,89
2018-04-12T20:17:34.268Z,89
2018-04-12T20:22:34.490Z,89
2018-04-12T20:27:34.755Z,89
2018-04-12T20:32:33.934Z,89
2018-04-12T20:37:34.152Z,89
2018-04-12T20:42:34.362Z,89
2018-04-12T20:47:34.508Z,89
2018-04-12T20:52:34.104Z,90
2018-04-12T20:57:33.835Z,90
2018-04-12T21:02:34.362Z,90
2018-04-12T21:07:34.956Z,90
2018-04-12T21:12:34.397Z,90
2018-04-12T21:17:34.761Z,90
2018-04-12T21:22:34.076Z,90
2018-04-12T21:27:34.251Z,90
2018-04-12T21:32:34.572Z,90
2018-04-12T21:37:34.777Z,90
2018-04-12T21:42:34.165Z,90
2018-04-12T21:47:34.456Z,90
2018-04-12T21:52:34.606Z,90
2018-04-12T21:57:33.960Z,90
2018-04-12T22:02:34.593Z,90
2018-04-12T22:07:34.089Z,90
2018-04-12T22:12:34.268Z,90
2018-04-12T22:17:34.494Z,90
2018-04-12T22:22:34.724Z,90
2018-04-12T22:27:34.157Z,90
2018-04-12T22:32:34.458Z,90
2018-04-12T22:37:34.820Z,90
2018-04-12T22:42:34.048Z,90
2018-04-12T22:47:34.700Z,90
2018-04-12T22:52:34.854Z,91
2018-04-12T22:57:34.650Z,91
2018-04-12T23:02:34.126Z,91
2018-04-12T23:07:34.290Z,91
2018-04-12T23:12:34.548Z,91
2018-04-12T23:17:34.849Z,91
2018-04-12T23:22:35.227Z,92
2018-04-12T23:27:34.510Z,92
2018-04-12T23:32:34.884Z,92
2018-04-12T23:37:34.027Z,92
2018-04-12T23:42:34.379Z,92
2018-04-12T23:47:34.596Z,92
2018-04-12T23:52:34.810Z,92
2018-04-12T23:57:35.014Z,92
